Butternut Basin, Massachusetts
Current Conditions -  °F | °C
As of 12:54 PM on Monday 26 Jan 2015 (Local Time) from KPSF Reporting Station
Overcast Overcast  
Wind Chill: 10°   Ceiling: 3800
Heat Index: 19°   Visibility: 10mi
Dew Point:   Wind: 7mph
Humidity: 52%   Direction: NA
Pressure: 29.92"   Gusts: NA
Location:  42.19°N, 73.31°W
Report Text: KPSF 261754Z AUTO VRB06KT 10SM OVC038 M07/M16 A2992 RMK AO2 SLP159 T10721156 11072 21128 58021
Loading
Personal Weather Stations






























Interactive Weather Map New forecast layout! Learn more

10-Day Weather Forecast

Advertisements
Track Severe Weather on mobile